Town of Nocatee, Florida
Current Conditions -  °F | °C
As of 7:53 AM on Monday 22 Dec 2014 (Local Time) from KCRG Reporting Station
Overcast Overcast  
Wind Chill: 65°   Ceiling: 7000
Heat Index: 65°   Visibility: 10mi
Dew Point: 63°   Wind: 15mph
Humidity: 93%   Direction: 160°SSE
Pressure: 30.01"   Gusts: NA
Location:  30.1736°N, 81.3956°W
Report Text: KCRG 221253Z 16013KT 10SM SCT006 OVC070 18/17 A3001 RMK AO2 RAE33 SLP160 P0001 T01830172
Loading
Personal Weather Stations






























Interactive Weather Map New forecast layout! Learn more

10-Day Weather Forecast

Advertisements
Track Severe Weather on mobile